Terminal Aerodrome Forecast
Issued by NWS

Home | Current Version | Previous Version | Text Only | Print | Product List | Glossary On
Versions: 1 2 3 4 5 6 7 8 9 10 11 12 13
000
FTUS45 KREV 210500
TAFMMH
TAF
KMMH 210520Z 2106/2206 30008KT P6SM FEW100 SCT180
     FM212100 11009KT P6SM SCT100
     FM220300 VRB03KT P6SM SCT100
      AMD NOT SKED TIL 211400=

USA.gov is the U.S. government's official web portal to all federal, state and local government web resources and services.